tititudorancea.com
Station Historical Data
Daily Summary for September 23, 2018 Units:  Metric    English   Both
« Previous Day
Next Day »
Daily Weekly Monthly Yearly Custom
  High: Low: Average:
Temperature: -17.8 °C 5.4 °C 7.4 °C
Dew Point: -17.8 °C 2.5 °C 5.2 °C
Humidity: Humidity % 68 % 86 %
Wind Speed: 0 km/h 0 km/h 13.8 km/h
Wind Gust: 0 km/h - -
Wind:- - SSW
Pressure: 0 hPa 1026.3 hPa -
Precipitation: 0.2 mm    
Historical Graphs
 
 
Ararat weather Find more about Weather in Ararat, AU


 



 


Tabular Data for September 23, 2018
Time Temperature Dew Point Pressure Wind Wind Speed Wind Gust Humidity Rainfall Rate (Hourly)
-17.8 °C -17.8 °C 0 hPa Calm     Humidity % 0 mm
00:04 9.9 °C 7.7 °C 1027.3 hPa Calm     86 % 0 mm
00:09 9.8 °C 7.7 °C 1027.3 hPa South 3.7 km/h   87 % 0 mm
00:14 9.7 °C 7.4 °C 1027.3 hPa North 1.9 km/h   86 % 0 mm
00:19 9.5 °C 7.4 °C 1027.3 hPa Calm     87 % 0 mm
00:24 9.4 °C 7.3 °C 1027.3 hPa Calm     87 % 0 mm
00:29 9.2 °C 6.9 °C 1027.3 hPa Calm     86 % 0 mm
00:34 8.8 °C 6.8 °C 1027.3 hPa Calm     87 % 0 mm
00:39 8.7 °C 6.8 °C 1027.3 hPa Calm     88 % 0 mm
00:44 8.6 °C 6.7 °C 1027.3 hPa Calm     88 % 0 mm
00:49 8.4 °C 6.5 °C 1027.3 hPa Calm     88 % 0 mm
00:54 8.2 °C 6.5 °C 1027.3 hPa Calm     89 % 0 mm
00:59 8.1 °C 6.4 °C 1027.3 hPa Calm     89 % 0 mm
01:04 7.9 °C 6.2 °C 1027.3 hPa Calm     89 % 0 mm
01:09 7.6 °C 5.9 °C 1027 hPa Calm     89 % 0 mm
01:14 7.4 °C 5.7 °C 1027 hPa Calm     89 % 0 mm
01:19 7.3 °C 5.6 °C 1027 hPa Calm     89 % 0 mm
01:24 7.2 °C 5.7 °C 1027 hPa Calm     90 % 0 mm
01:29 7.2 °C 5.7 °C 1027 hPa Calm     90 % 0 mm
01:34 7.3 °C 5.9 °C 1027 hPa South 3.7 km/h 2.3 km/h 91 % 0 mm
01:39 7.1 °C 5.5 °C 1027 hPa South 5.6 km/h 2.9 km/h 90 % 0 mm
01:44 7 °C 5.6 °C 1027 hPa South 5.6 km/h 1.6 km/h 91 % 0 mm
01:49 6.9 °C 5.6 °C 1027 hPa South 5.6 km/h 3.7 km/h 91 % 0 mm
01:54 6.8 °C 5.4 °C 1027 hPa South 5.6 km/h 5.1 km/h 91 % 0 mm
01:59 6.8 °C 5.4 °C 1027 hPa South 6.4 km/h 4.8 km/h 91 % 0 mm
02:04 6.8 °C 5.6 °C 1027 hPa South 5.6 km/h 3.2 km/h 92 % 0 mm
02:09 6.7 °C 5.3 °C 1027 hPa North 5.6 km/h 4.5 km/h 91 % 0 mm
02:14 6.7 °C 5.3 °C 1027 hPa North 5.6 km/h 5.1 km/h 91 % 0 mm
02:19 6.5 °C 5.3 °C 1027 hPa North 5.6 km/h 2.1 km/h 92 % 0 mm
02:24 6.4 °C 5.2 °C 1026.6 hPa North 1.9 km/h 0.2 km/h 92 % 0 mm
02:29 6.3 °C 4.9 °C 1026.6 hPa Calm     91 % 0 mm
02:34 6.2 °C 4.8 °C 1026.6 hPa Calm     91 % 0 mm
02:39 6.1 °C 4.9 °C 1026.6 hPa South 1.6 km/h 1.3 km/h 92 % 0 mm
02:44 6.1 °C 4.8 °C 1026.6 hPa South 5.6 km/h 4.2 km/h 92 % 0 mm
02:49 5.9 °C 4.7 °C 1026.6 hPa North 5.6 km/h 3.5 km/h 92 % 0 mm
02:54 5.8 °C 4.6 °C 1026.6 hPa South 3.7 km/h 1.9 km/h 92 % 0 mm
02:59 5.7 °C 4.7 °C 1026.6 hPa South 3.7 km/h 1.6 km/h 93 % 0 mm
03:04 5.8 °C 4.7 °C 1026.6 hPa Calm     93 % 0 mm
03:09 5.8 °C 4.8 °C 1026.6 hPa Calm     93 % 0 mm
03:14 5.9 °C 4.9 °C 1026.6 hPa Calm     93 % 0 mm
03:19 5.9 °C 4.9 °C 1026.6 hPa Calm     93 % 0 mm
03:24 6 °C 4.9 °C 1026.6 hPa Calm     93 % 0 mm
03:29 6.1 °C 5.1 °C 1026.3 hPa Calm     93 % 0 mm
03:34 6.2 °C 5.2 °C 1026.6 hPa Calm     93 % 0 mm
03:39 6.3 °C 5.4 °C 1026.3 hPa Calm     94 % 0 mm
03:44 6.4 °C 5.6 °C 1026.6 hPa South 3.7 km/h 0.5 km/h 94 % 0 mm
03:49 6.4 °C 5.3 °C 1026.6 hPa South 1.6 km/h   93 % 0 mm
03:54 6.4 °C 5.4 °C 1026.6 hPa South 5.6 km/h 4.8 km/h 93 % 0 mm
03:59 6.6 °C 5.7 °C 1026.6 hPa North 4.8 km/h 2.6 km/h 94 % 0 mm
04:04 6.8 °C 5.9 °C 1026.6 hPa South 3.7 km/h 2.6 km/h 94 % 0 mm
04:09 7.1 °C 6.2 °C 1026.6 hPa South 5.6 km/h 1.9 km/h 94 % 0 mm
04:14 7.3 °C 6.4 °C 1026.6 hPa South 3.7 km/h 3.5 km/h 94 % 0 mm
04:19 7.5 °C 6.6 °C 1026.6 hPa North 3.7 km/h 4.8 km/h 94 % 0 mm
04:24 8 °C 7.2 °C 1026.6 hPa South 11.3 km/h 7.2 km/h 95 % 0 mm
04:29 8.6 °C 7.8 °C 1026.6 hPa North 17.7 km/h 9.2 km/h 95 % 0 mm
04:34 8.7 °C 7.8 °C 1027 hPa North 16.7 km/h 11.6 km/h 94 % 0 mm
04:39 8.8 °C 7.9 °C 1027 hPa SSW 20.4 km/h 17.9 km/h 94 % 0 mm
04:44 8.7 °C 7.8 °C 1027.3 hPa SSW 14.8 km/h 13.4 km/h 94 % 0 mm
04:49 8.7 °C 7.8 °C 1027.3 hPa North 14.5 km/h 11.4 km/h 94 % 0 mm
04:54 8.6 °C 7.7 °C 1027.3 hPa South 22.2 km/h 14.8 km/h 94 % 0 mm
04:59 8.3 °C 7.4 °C 1027.3 hPa SSW 24.1 km/h 17.9 km/h 94 % 0 mm
05:04 8.2 °C 7.3 °C 1027.7 hPa North 25.9 km/h 16.3 km/h 94 % 0 mm
05:09 8.1 °C 7.2 °C 1027.7 hPa South 16.7 km/h 10.5 km/h 94 % 0 mm
05:14 7.9 °C 7.1 °C 1027.7 hPa South 24.1 km/h 10.6 km/h 94 % 0 mm
05:19 7.9 °C 7.1 °C 1027.7 hPa South 16.7 km/h 12.4 km/h 95 % 0 mm
05:24 7.8 °C 7.1 °C 1027.7 hPa North 20.4 km/h 13.2 km/h 95 % 0 mm
05:29 7.8 °C 7.1 °C 1027.7 hPa South 20.4 km/h 11.3 km/h 95 % 0 mm
05:34 7.8 °C 7 °C 1027.7 hPa South 14.8 km/h 12.9 km/h 95 % 0 mm
05:39 7.8 °C 7.1 °C 1028 hPa South 13 km/h 8.5 km/h 95 % 0 mm
05:44 7.8 °C 7.1 °C 1028 hPa South 18.5 km/h 6.9 km/h 95 % 0 mm
05:49 7.8 °C 7.1 °C 1028 hPa South 13 km/h 9.5 km/h 95 % 0 mm
05:54 7.8 °C 7.1 °C 1028.3 hPa South 20.4 km/h 9.8 km/h 95 % 0 mm
05:59 7.9 °C 7.1 °C 1028.3 hPa North 14.8 km/h 11.1 km/h 95 % 0 mm
06:04 7.9 °C 7.1 °C 1028.3 hPa South 18.5 km/h 8.2 km/h 95 % 0 mm
06:09 7.9 °C 7.1 °C 1028.7 hPa South 18.5 km/h 11.7 km/h 95 % 0 mm
06:14 7.9 °C 7.1 °C 1028.7 hPa South 18.5 km/h 12.1 km/h 95 % 0 mm
06:19 7.9 °C 7.1 °C 1028.7 hPa North 14.8 km/h 5.6 km/h 95 % 0 mm
06:24 7.9 °C 7.1 °C 1028.7 hPa SSE 18.5 km/h 8.4 km/h 95 % 0 mm
06:29 7.9 °C 7.1 °C 1028.7 hPa SSE 14.8 km/h 11.7 km/h 95 % 0 mm
06:34 7.9 °C 7.1 °C 1028.7 hPa South 14.8 km/h 8.4 km/h 95 % 0 mm
06:39 7.9 °C 7.1 °C 1029 hPa South 14.8 km/h 9.7 km/h 95 % 0 mm
06:44 7.9 °C 7.1 °C 1029 hPa North 20.4 km/h 13 km/h 95 % 0 mm
06:49 7.9 °C 7.2 °C 1029 hPa South 11.3 km/h 6.6 km/h 95 % 0 mm
06:54 7.9 °C 7.1 °C 1029 hPa South 18.5 km/h 14.3 km/h 95 % 0 mm
06:59 7.8 °C 7 °C 1029 hPa North 25.7 km/h 20 km/h 95 % 0 mm
07:04 7.4 °C 6.6 °C 1029.3 hPa South 16.7 km/h 15 km/h 94 % 0 mm
07:09 7.2 °C 6.5 °C 1029.3 hPa North 22.2 km/h 18 km/h 95 % 0 mm
07:14 7.1 °C 6.4 °C 1029.3 hPa North 12.9 km/h 7.9 km/h 95 % 0 mm
07:19 7.2 °C 6.5 °C 1029.7 hPa South 13 km/h 12.2 km/h 95 % 0 mm
07:24 7.3 °C 6.6 °C 1029.7 hPa South 14.8 km/h 6.6 km/h 95 % 0.2 mm
07:29 7.3 °C 6.4 °C 1029.7 hPa South 16.1 km/h 13.4 km/h 94 % 0.2 mm
07:34 7.4 °C 6.7 °C 1029.7 hPa South 14.8 km/h 8.4 km/h 95 % 0.2 mm
07:39 7.5 °C 6.6 °C 1029.7 hPa South 13 km/h 10.9 km/h 94 % 0.2 mm
07:44 7.6 °C 6.7 °C 1029.7 hPa South 22.2 km/h 14.2 km/h 94 % 0.2 mm
07:49 7.7 °C 6.8 °C 1029.7 hPa South 18.5 km/h 7.4 km/h 94 % 0.2 mm
07:54 7.8 °C 6.8 °C 1029.7 hPa South 14.5 km/h 10.1 km/h 93 % 0.2 mm
07:59 7.9 °C 6.8 °C 1029.7 hPa SSE 13 km/h 7.1 km/h 93 % 0.2 mm
08:04 8.1 °C 7 °C 1029.7 hPa SSE 13 km/h 8.7 km/h 93 % 0.2 mm
08:09 8.2 °C 7 °C 1030 hPa North 9.3 km/h 8 km/h 92 % 0.2 mm
08:14 8.2 °C 7 °C 1030 hPa South 18.5 km/h 11.6 km/h 92 % 0.2 mm
08:19 8.3 °C 6.9 °C 1030 hPa North 18.5 km/h 9.3 km/h 91 % 0.2 mm
08:24 8.4 °C 7 °C 1030 hPa South 22.2 km/h 10.3 km/h 91 % 0 mm
08:29 8.4 °C 6.9 °C 1030.4 hPa SSE 22.2 km/h 16.4 km/h 90 % 0 mm
08:34 8.5 °C 6.8 °C 1030.4 hPa South 20.9 km/h 15.3 km/h 89 % 0 mm
08:39 8.6 °C 6.9 °C 1030.4 hPa North 16.7 km/h 10.9 km/h 89 % 0 mm
08:44 8.7 °C 6.8 °C 1030.4 hPa South 16.7 km/h 16.7 km/h 88 % 0 mm
08:49 8.7 °C 6.8 °C 1030.4 hPa South 18.5 km/h 8.4 km/h 88 % 0 mm
08:54 8.8 °C 6.9 °C 1030.4 hPa South 24.1 km/h 15.1 km/h 88 % 0 mm
08:59 8.9 °C 6.7 °C 1030.4 hPa South 22.2 km/h 18 km/h 86 % 0 mm
09:04 9 °C 6.8 °C 1030.4 hPa SSE 20.4 km/h 10.1 km/h 86 % 0 mm
09:09 9.1 °C 6.7 °C 1030.4 hPa North 18.5 km/h 17.9 km/h 85 % 0 mm
09:14 9.1 °C 6.4 °C 1030.4 hPa South 22.2 km/h 18.5 km/h 83 % 0 mm
09:19 9.2 °C 6.4 °C 1030.7 hPa South 27.4 km/h 20.4 km/h 83 % 0 mm
09:24 9.1 °C 6 °C 1030.7 hPa South 29.6 km/h 14.3 km/h 81 % 0 mm
09:29 9.3 °C 6 °C 1030.7 hPa SSE 27.8 km/h 18.7 km/h 80 % 0 mm
09:34 9.3 °C 5.9 °C 1031 hPa SSE 27.8 km/h 15.3 km/h 79 % 0 mm
09:39 9.4 °C 5.7 °C 1031 hPa SSE 24.1 km/h 19.3 km/h 78 % 0 mm
09:44 9.4 °C 5.8 °C 1031 hPa South 27.8 km/h 18.3 km/h 78 % 0 mm
09:49 9.4 °C 5.7 °C 1031 hPa South 29.6 km/h 19.2 km/h 78 % 0 mm
09:54 9.3 °C 5.6 °C 1031 hPa South 24.1 km/h 11.4 km/h 78 % 0 mm
09:59 9.5 °C 5.8 °C 1031 hPa South 24.1 km/h 16.9 km/h 78 % 0 mm
10:04 9.8 °C 5.9 °C 1031 hPa SSW 30.6 km/h 18.8 km/h 77 % 0 mm
10:09 9.7 °C 5.5 °C 1031 hPa South 29.6 km/h 15.8 km/h 75 % 0 mm
10:14 9.7 °C 5.5 °C 1031 hPa SSW 20.4 km/h 20.1 km/h 75 % 0 mm
10:19 9.8 °C 5.4 °C 1031 hPa South 27.8 km/h 18 km/h 74 % 0 mm
10:24 10 °C 5.6 °C 1030.7 hPa South 27.8 km/h 16.6 km/h 74 % 0 mm
10:29 10.2 °C 4.9 °C 1031 hPa South 33.3 km/h 20.3 km/h 70 % 0 mm
10:34 10.2 °C 5 °C 1030.7 hPa SSW 25.9 km/h 15 km/h 70 % 0 mm
10:39 10.5 °C 5.3 °C 1030.7 hPa South 24.1 km/h 14.5 km/h 70 % 0 mm
10:44 10.5 °C 4.8 °C 1030.7 hPa South 22.2 km/h 17.1 km/h 68 % 0 mm
10:45 10.4 °C 4.8 °C 1030.7 hPa South 24.1 km/h 17.7 km/h 68 % 0 mm
18:59 7.8 °C 3.9 °C 1031 hPa South 14.8 km/h 9.3 km/h 76 % 0 mm
19:04 7.8 °C 3.9 °C 1031.4 hPa South 9.3 km/h 6 km/h 76 % 0 mm
19:09 7.8 °C 3.8 °C 1031.4 hPa South 13 km/h 10 km/h 76 % 0 mm
19:14 7.7 °C 3.8 °C 1031.4 hPa South 14.8 km/h 7.9 km/h 76 % 0 mm
19:19 7.7 °C 3.6 °C 1031.4 hPa North 14.8 km/h 11.1 km/h 75 % 0 mm
19:24 7.7 °C 3.6 °C 1031.7 hPa SSE 27.4 km/h 18.7 km/h 75 % 0 mm
19:29 7.8 °C 3.5 °C 1031.7 hPa South 25.9 km/h 18.8 km/h 74 % 0 mm
19:34 7.9 °C 3.6 °C 1031.7 hPa South 18.5 km/h 15.4 km/h 74 % 0 mm
19:39 7.9 °C 3.6 °C 1031.7 hPa South 16.7 km/h 10.9 km/h 74 % 0 mm
19:44 7.8 °C 3.3 °C 1031.7 hPa South 16.7 km/h 13.4 km/h 73 % 0 mm
19:49 7.8 °C 3.3 °C 1031.7 hPa South 20.4 km/h 10.9 km/h 73 % 0 mm
19:54 7.8 °C 3.2 °C 1031.7 hPa South 18.5 km/h 13 km/h 73 % 0 mm
19:59 7.7 °C 3.4 °C 1031.7 hPa South 18.5 km/h 10 km/h 74 % 0 mm
20:04 7.7 °C 3.4 °C 1031.7 hPa South 18.5 km/h 13.4 km/h 74 % 0 mm
20:09 7.7 °C 3.4 °C 1032.1 hPa South 14.5 km/h 9.2 km/h 74 % 0 mm
20:14 7.6 °C 3.3 °C 1032.1 hPa South 11.1 km/h 7.1 km/h 74 % 0 mm
20:19 7.6 °C 3.4 °C 1032.1 hPa South 14.8 km/h 9.7 km/h 75 % 0 mm
20:24 7.5 °C 3.3 °C 1032.1 hPa South 13 km/h 6.8 km/h 75 % 0 mm
20:29 7.4 °C 3.3 °C 1032.1 hPa South 14.8 km/h 7.9 km/h 75 % 0 mm
20:34 7.3 °C 3.2 °C 1032.1 hPa South 18.5 km/h 12.9 km/h 75 % 0 mm
20:39 7.3 °C 3.1 °C 1032.1 hPa South 16.7 km/h 13.2 km/h 75 % 0 mm
20:44 7.3 °C 2.9 °C 1032.1 hPa South 18.5 km/h 7.2 km/h 74 % 0 mm
20:49 7.3 °C 2.9 °C 1032.1 hPa South 18.5 km/h 12.6 km/h 74 % 0 mm
20:54 7.3 °C 2.8 °C 1032.1 hPa South 16.7 km/h 11.3 km/h 73 % 0 mm
20:59 7.3 °C 2.8 °C 1032.1 hPa South 14.8 km/h 10.3 km/h 73 % 0 mm
21:04 7.3 °C 2.6 °C 1032.1 hPa South 16.7 km/h 15.9 km/h 72 % 0 mm
21:09 7.2 °C 2.5 °C 1032.1 hPa South 13 km/h 13.2 km/h 72 % 0 mm
21:14 7.2 °C 2.7 °C 1032.1 hPa South 18.5 km/h 15.4 km/h 73 % 0 mm
21:19 7.1 °C 2.6 °C 1032.1 hPa South 19.3 km/h 9.5 km/h 73 % 0 mm
21:24 7 °C 2.7 °C 1032.1 hPa North 13 km/h 6.3 km/h 74 % 0 mm
21:29 7 °C 2.9 °C 1032.1 hPa South 20.4 km/h 9.7 km/h 75 % 0 mm
21:34 7 °C 2.9 °C 1032.1 hPa South 18.5 km/h 10.8 km/h 75 % 0 mm
21:39 7 °C 3.1 °C 1032.1 hPa South 16.7 km/h 12.4 km/h 76 % 0 mm
21:44 7.1 °C 3.1 °C 1032.1 hPa SSE 20.4 km/h 8.2 km/h 76 % 0 mm
21:49 7 °C 3.1 °C 1032.1 hPa South 14.8 km/h 11.3 km/h 76 % 0 mm
21:54 6.9 °C 2.9 °C 1032.1 hPa South 18.5 km/h 10.5 km/h 76 % 0 mm
21:59 6.7 °C 2.9 °C 1032.1 hPa South 16.1 km/h 9.7 km/h 77 % 0 mm
22:04 6.6 °C 3 °C 1032.1 hPa South 18.5 km/h 11.3 km/h 78 % 0 mm
22:09 6.4 °C 2.8 °C 1032.1 hPa South 11.1 km/h 9.7 km/h 78 % 0 mm
22:14 6.2 °C 2.8 °C 1032.1 hPa South 13 km/h 5 km/h 79 % 0 mm
22:19 6.1 °C 2.7 °C 1032.1 hPa SSE 16.7 km/h 10.1 km/h 79 % 0 mm
22:24 6 °C 2.8 °C 1032.1 hPa SSE 13 km/h 9.2 km/h 80 % 0 mm
22:29 5.8 °C 2.8 °C 1032.1 hPa South 11.1 km/h 5.5 km/h 81 % 0 mm
22:34 5.7 °C 2.7 °C 1032.1 hPa South 11.1 km/h 6.8 km/h 81 % 0 mm
22:39 5.6 °C 2.9 °C 1032.1 hPa South 18.5 km/h 10.9 km/h 83 % 0 mm
22:44 5.5 °C 2.8 °C 1032.1 hPa South 16.7 km/h 10.8 km/h 83 % 0 mm
22:49 5.4 °C 2.9 °C 1032.1 hPa South 14.8 km/h 9.2 km/h 84 % 0 mm
22:54 5.4 °C 2.9 °C 1032.1 hPa South 13 km/h 8.7 km/h 84 % 0 mm
22:59 5.4 °C 3.1 °C 1032.1 hPa South 11.1 km/h 5.8 km/h 85 % 0 mm
23:04 5.4 °C 3.1 °C 1032.1 hPa South 13 km/h 7.6 km/h 85 % 0 mm
23:09 5.5 °C 3.2 °C 1032.1 hPa South 16.7 km/h 9.2 km/h 85 % 0 mm
23:14 5.6 °C 3.2 °C 1032.1 hPa South 18.5 km/h 10.1 km/h 85 % 0 mm
23:19 5.7 °C 3.6 °C 1032.1 hPa South 14.8 km/h 9.8 km/h 86 % 0 mm
23:24 5.8 °C 3.5 °C 1031.7 hPa South 12.9 km/h 9.3 km/h 85 % 0 mm
23:29 5.9 °C 3.6 °C 1031.7 hPa South 13 km/h 8.4 km/h 85 % 0 mm
23:34 6 °C 3.8 °C 1031.7 hPa South 18.5 km/h 11.9 km/h 86 % 0 mm
23:39 6.1 °C 3.9 °C 1031.7 hPa South 18.5 km/h 9.5 km/h 86 % 0 mm
23:44 6.2 °C 3.8 °C 1031.7 hPa South 13 km/h 9.5 km/h 85 % 0 mm
23:49 6.2 °C 4 °C 1031.7 hPa South 16.7 km/h 13.2 km/h 86 % 0 mm
23:54 6.1 °C 3.9 °C 1031.7 hPa South 16.7 km/h 14.6 km/h 86 % 0 mm
23:59 5.9 °C 3.8 °C 1031.7 hPa South 25.9 km/h 16.6 km/h 86 % 0 mm
Ararat Weather
Compliments of Weather Underground - 1.75 mb
Click here to send mail.


ABOUT

Live weather data from Ararat, Victoria, Australia, 3377
Data uploaded from Cumulus every 5 minutes to Weather Underground.
This site then downloads the raw data for formatting and display.
Metric and imperial data can be displayed. Graphs and historical data available.
Includes Sun and Moon times and rain image live from BOM.

Check out Ararat Weather on Facebook, Twitter and Google +

Help support ongoing costs by checking out the ads





Follow @AraratWeather